Rio Negro, Brazil
Current Conditions -  °F | °C
As of 11:00 AM on Saturday 22 Nov 2014 (Local Time) from SBCT Reporting Station
Overcast Overcast  
Wind Chill: 68°   Ceiling: 8000
Heat Index: 68°   Visibility: 6mi
Dew Point: 61°   Wind: 9mph
Humidity: 78%   Direction: 310°NW
Pressure: 30"   Gusts: NA
Location:  26.11°S, 49.8°W
Report Text: SBCT 221300Z 31008KT 9999 SCT010 OVC080 20/16 Q1016
Loading
Personal Weather Stations






























Interactive Weather Map New forecast layout! Learn more

10-Day Weather Forecast

Advertisements
Track Severe Weather on mobile